CheckWX is a tool to help pilots better visualize weather data.  It is not intended as a substitute for an official pre-flight weather briefing.

21:23:47 UTC

KLGA TAF
Laguardia Airport
New York, New York, USA
KLGA 021542Z 0216/0318 33014G25KT P6SM BKN040 FM022000 32022G30KT P6SM BKN040 FM030100 32022G30KT P6SM BKN040 FM030300 33015G21KT P6SM VCSH BKN030 FM031200 34016G23KT P6SM VCSH OVC035

Apr-2@
16:00 UTC

Apr-2 @ 16:00 UTC

Apr-2@
20:00 UTC

Apr-2 @ 20:00 UTC

TAF KLGA 021542Z 0216/0318 33014G25KT P6SM BKN040

Expired

Wind
  • 330° at 14 KTS
  • {Gusting to 25 KTS
Cloud Levels
  • Broken at 4,000' AGL

Apr-2@
20:00 UTC

Apr-2 @ 20:00 UTC

Apr-3@
01:00 UTC

Apr-3 @ 01:00 UTC

FM022000 32022G30KT P6SM BKN040

From

From Standard forecast or significant change

Wind
  • 320° at 22 KTS
  • {Gusting to 30 KTS
Cloud Levels
  • Broken at 4,000' AGL

Apr-3@
01:00 UTC

Apr-3 @ 01:00 UTC

Apr-3@
03:00 UTC

Apr-3 @ 03:00 UTC

FM030100 32022G30KT P6SM BKN040

From

From Standard forecast or significant change

Wind
  • 320° at 22 KTS
  • {Gusting to 30 KTS
Cloud Levels
  • Broken at 4,000' AGL

Apr-3@
03:00 UTC

Apr-3 @ 03:00 UTC

Apr-3@
12:00 UTC

Apr-3 @ 12:00 UTC

FM030300 33015G21KT P6SM VCSH BKN030

From

From Standard forecast or significant change

Wind
  • 330° at 15 KTS
  • {Gusting to 21 KTS
Conditions
Area Showers
Cloud Levels
  • Broken at 3,000' AGL

Apr-3@
12:00 UTC

Apr-3 @ 12:00 UTC

Apr-3@
18:00 UTC

Apr-3 @ 18:00 UTC

FM031200 34016G23KT P6SM VCSH OVC035

From

From Standard forecast or significant change

Wind
  • 340° at 16 KTS
  • {Gusting to 23 KTS
Conditions
Area Showers
Cloud Levels
  • Overcast at 3,500' AGL